Tiverton, Rhode Island
Current Conditions -  °F | °C
As of 11:53 AM on Saturday 22 Nov 2014 (Local Time) from KUUU Reporting Station
Clear Clear  
Wind Chill: 37°   Ceiling: Unl
Heat Index: 42°   Visibility: 10mi
Dew Point: 20°   Wind: 9mph
Humidity: 41%   Direction: 210°SSW
Pressure: 30.31"   Gusts: 24mph
Location:  41.62°N, 71.21°W
Report Text: KUUU 221653Z AUTO 21008G21KT 10SM CLR 06/M07 A3031 RMK AO2 SLP265 T00561067
Loading
Personal Weather Stations






























Interactive Weather Map New forecast layout! Learn more

10-Day Weather Forecast

Advertisements
Track Severe Weather on mobile